Time;durP1;ratioP1;P1;durP2;ratioP2;P2;SDS_P1;SDS_P2;PMS_P1;PMS_P2;Temp;Humidity;BMP_temperature;BMP_pressure;BME280_temperature;BME280_humidity;BME280_pressure;Samples;Min_cycle;Max_cycle;Signal;HPM_P1;HPM_P2
2022/02/20 00:01:05;;;;;;;3.15;1.50;;;7.30;81.70;;;;;;5116028;28;20202;-67
2022/02/20 00:03:33;;;;;;;2.17;1.70;;;7.30;82.10;;;;;;5116123;28;20204;-67
2022/02/20 00:06:00;;;;;;;3.78;1.45;;;7.20;82.50;;;;;;5116038;28;20291;-67
2022/02/20 00:08:27;;;;;;;2.95;1.75;;;7.20;83.30;;;;;;5116089;28;20201;-67
2022/02/20 00:10:54;;;;;;;3.83;1.30;;;7.20;84.10;;;;;;5115751;28;20205;-67
2022/02/20 00:13:21;;;;;;;3.33;1.35;;;7.20;85.00;;;;;;5116014;28;20570;-67
2022/02/20 00:15:48;;;;;;;3.80;1.70;;;7.00;86.40;;;;;;5115965;28;20233;-68
2022/02/20 00:18:15;;;;;;;2.03;1.30;;;7.00;87.80;;;;;;5116085;28;20201;-67
2022/02/20 00:20:44;;;;;;;6.22;1.55;;;6.90;88.70;;;;;;5115718;28;20207;-68
2022/02/20 00:23:15;;;;;;;4.22;1.48;;;7.00;89.30;;;;;;5115978;28;20292;-68
2022/02/20 00:25:42;;;;;;;6.25;1.15;;;7.00;89.60;;;;;;5115732;28;20284;-68
2022/02/20 00:28:10;;;;;;;3.42;1.60;;;7.00;89.90;;;;;;5115417;28;20243;-67
2022/02/20 00:30:36;;;;;;;4.47;1.50;;;7.00;90.00;;;;;;5115175;28;20254;-68
2022/02/20 00:33:04;;;;;;;1.20;1.10;;;7.00;90.20;;;;;;5115354;28;20210;-68
2022/02/20 00:35:33;;;;;;;3.03;1.67;;;7.00;90.40;;;;;;5115453;28;20583;-68
2022/02/20 00:38:01;;;;;;;2.63;1.15;;;7.00;90.50;;;;;;5115492;28;20581;-68
2022/02/20 00:40:28;;;;;;;1.95;1.42;;;7.00;90.80;;;;;;5115205;28;20215;-67
2022/02/20 00:42:55;;;;;;;2.65;1.42;;;6.90;91.70;;;;;;5115489;28;20559;-68
2022/02/20 00:45:23;;;;;;;3.72;1.30;;;6.70;92.40;;;;;;5115100;28;20203;-67
2022/02/20 00:47:51;;;;;;;5.15;1.50;;;6.60;93.10;;;;;;5115312;28;20217;-68
2022/02/20 00:50:18;;;;;;;3.72;1.50;;;6.60;93.80;;;;;;5114810;28;20205;-68
2022/02/20 00:52:45;;;;;;;1.88;1.60;;;6.60;94.20;;;;;;5115195;28;20667;-68
2022/02/20 00:55:13;;;;;;;1.85;1.20;;;6.60;94.50;;;;;;5115047;28;20223;-67
2022/02/20 00:57:40;;;;;;;1.83;1.35;;;6.50;94.80;;;;;;5115374;28;20243;-68
2022/02/20 01:00:09;;;;;;;2.83;1.30;;;6.50;95.40;;;;;;5115062;28;20288;-67
2022/02/20 01:02:37;;;;;;;2.58;1.25;;;6.50;95.70;;;;;;5115192;28;20205;-68
2022/02/20 01:05:04;;;;;;;2.67;1.38;;;6.50;96.10;;;;;;5114949;28;20205;-67
2022/02/20 01:07:31;;;;;;;3.00;1.35;;;6.40;96.30;;;;;;5114911;28;20312;-68
2022/02/20 01:09:58;;;;;;;4.15;1.35;;;6.40;96.60;;;;;;5114717;28;20241;-67
2022/02/20 01:12:27;;;;;;;4.70;1.38;;;6.40;96.90;;;;;;5114969;28;20660;-67
2022/02/20 01:14:53;;;;;;;2.67;1.63;;;6.40;97.10;;;;;;5114722;28;20243;-68
2022/02/20 01:17:20;;;;;;;4.35;1.50;;;6.40;97.30;;;;;;5114422;28;20699;-68
2022/02/20 01:19:48;;;;;;;3.30;1.38;;;6.40;97.40;;;;;;5114148;28;20683;-67
2022/02/20 01:22:14;;;;;;;2.95;1.23;;;6.40;97.60;;;;;;5114542;28;20656;-67
2022/02/20 01:24:41;;;;;;;2.88;1.40;;;6.40;97.80;;;;;;5114439;28;20651;-67
2022/02/20 01:27:08;;;;;;;3.78;1.40;;;6.40;98.00;;;;;;5114350;28;20243;-68
2022/02/20 01:29:37;;;;;;;2.42;1.20;;;6.40;98.20;;;;;;5114573;28;20292;-67
2022/02/20 01:32:05;;;;;;;2.72;1.27;;;6.40;98.30;;;;;;5114574;28;20209;-68
2022/02/20 01:34:32;;;;;;;3.15;1.42;;;6.40;98.40;;;;;;5114479;28;20553;-68
2022/02/20 01:36:59;;;;;;;4.05;1.60;;;6.40;98.60;;;;;;5114713;28;20231;-67
2022/02/20 01:39:26;;;;;;;3.78;1.70;;;6.40;98.60;;;;;;5114477;28;20202;-68
2022/02/20 01:41:53;;;;;;;1.50;1.40;;;6.40;98.70;;;;;;5114353;28;20296;-68
2022/02/20 01:44:21;;;;;;;2.08;1.17;;;6.50;98.80;;;;;;5114300;28;20305;-67
2022/02/20 01:46:51;;;;;;;2.67;1.25;;;6.40;98.80;;;;;;5114149;28;20695;-68
2022/02/20 01:49:20;;;;;;;2.92;1.20;;;6.40;99.00;;;;;;5114278;28;20581;-68
2022/02/20 01:51:47;;;;;;;3.58;1.13;;;6.40;99.00;;;;;;5113834;28;20754;-67
2022/02/20 01:54:14;;;;;;;2.63;1.30;;;6.40;99.10;;;;;;5114150;28;20549;-68
2022/02/20 01:56:41;;;;;;;3.42;1.65;;;6.40;99.20;;;;;;5113930;28;20313;-68
2022/02/20 01:59:08;;;;;;;2.95;1.40;;;6.40;99.10;;;;;;5114138;28;20198;-67
2022/02/20 02:01:36;;;;;;;2.55;1.17;;;6.50;99.20;;;;;;5112990;28;20203;-68
2022/02/20 02:04:05;;;;;;;2.03;1.52;;;6.40;99.20;;;;;;5114154;28;20258;-67
2022/02/20 02:06:32;;;;;;;3.65;1.50;;;6.50;99.30;;;;;;5114023;28;20220;-67
2022/02/20 02:09:00;;;;;;;5.10;1.65;;;6.50;99.30;;;;;;5113963;28;20300;-67
2022/02/20 02:11:27;;;;;;;2.30;1.13;;;6.50;99.50;;;;;;5113970;28;20571;-67
2022/02/20 02:13:54;;;;;;;2.53;1.10;;;6.50;99.50;;;;;;5114111;28;20292;-68
2022/02/20 02:16:22;;;;;;;3.05;1.60;;;6.50;99.50;;;;;;5114057;28;20226;-67
2022/02/20 02:18:49;;;;;;;4.18;1.45;;;6.60;99.70;;;;;;5113984;28;20213;-67
2022/02/20 02:21:17;;;;;;;2.55;1.50;;;6.50;99.70;;;;;;5113157;28;20459;-67
2022/02/20 02:23:45;;;;;;;1.45;1.20;;;6.60;99.80;;;;;;5113886;28;20201;-67
2022/02/20 02:26:15;;;;;;;3.45;1.35;;;6.60;99.70;;;;;;5113832;28;20707;-67
2022/02/20 02:28:42;;;;;;;3.47;1.27;;;6.60;99.80;;;;;;5113666;28;20579;-67
2022/02/20 02:31:12;;;;;;;3.42;1.60;;;6.60;99.90;;;;;;5113701;28;20671;-68
2022/02/20 02:33:39;;;;;;;2.50;1.25;;;6.70;99.90;;;;;;5113967;28;20201;-68
2022/02/20 02:36:08;;;;;;;1.75;1.08;;;6.70;99.90;;;;;;5113565;28;20229;-67
2022/02/20 02:38:36;;;;;;;4.20;1.45;;;6.70;99.90;;;;;;5113870;28;20201;-68
2022/02/20 02:41:06;;;;;;;5.82;1.50;;;6.70;99.80;;;;;;5113411;28;20213;-68
2022/02/20 02:43:33;;;;;;;2.17;1.20;;;6.70;99.80;;;;;;5113688;28;20241;-68
2022/02/20 02:46:01;;;;;;;1.58;1.10;;;6.70;99.90;;;;;;5113623;28;20198;-68
2022/02/20 02:48:28;;;;;;;3.35;1.15;;;6.70;99.90;;;;;;5113451;28;20292;-68
2022/02/20 02:50:55;;;;;;;4.38;1.50;;;6.80;99.90;;;;;;5113498;28;20198;-68
2022/02/20 02:53:23;;;;;;;4.75;1.17;;;6.80;99.90;;;;;;5113706;28;20293;-68
2022/02/20 02:55:52;;;;;;;4.60;2.00;;;6.80;99.90;;;;;;5113330;28;20217;-68
2022/02/20 02:58:21;;;;;;;3.92;1.30;;;6.80;99.90;;;;;;5113351;28;20675;-67
2022/02/20 03:00:48;;;;;;;3.97;1.15;;;6.80;99.90;;;;;;5113640;28;20644;-68
2022/02/20 03:03:15;;;;;;;1.45;1.20;;;6.70;99.90;;;;;;5113498;28;20215;-68
2022/02/20 03:05:42;;;;;;;3.33;1.30;;;6.80;99.90;;;;;;5113704;28;20221;-68
2022/02/20 03:08:09;;;;;;;1.85;0.90;;;6.70;99.90;;;;;;5113568;28;20224;-68
2022/02/20 03:10:36;;;;;;;6.93;1.35;;;6.80;99.90;;;;;;5113226;28;20737;-68
2022/02/20 03:13:03;;;;;;;1.83;1.10;;;6.80;99.90;;;;;;5116360;28;20208;-68
2022/02/20 03:15:31;;;;;;;1.10;1.10;;;6.80;99.90;;;;;;5117321;28;20232;-68
2022/02/20 03:17:58;;;;;;;3.25;1.30;;;6.90;99.90;;;;;;5116747;28;20225;-67
2022/02/20 03:20:25;;;;;;;4.15;1.20;;;6.90;99.90;;;;;;5116702;28;20205;-68
2022/02/20 03:22:52;;;;;;;2.40;1.00;;;6.90;99.90;;;;;;5116817;28;20702;-67
2022/02/20 03:25:18;;;;;;;2.95;1.10;;;6.90;99.90;;;;;;5116871;28;20288;-67
2022/02/20 03:27:45;;;;;;;1.33;1.00;;;6.90;99.90;;;;;;5116531;28;20226;-68
2022/02/20 03:30:13;;;;;;;1.30;1.10;;;6.90;99.90;;;;;;5116467;28;20677;-67
2022/02/20 03:32:42;;;;;;;3.22;1.30;;;6.90;99.90;;;;;;5116742;28;20288;-68
2022/02/20 03:35:09;;;;;;;2.75;1.00;;;6.90;99.90;;;;;;5116527;28;20312;-68
2022/02/20 03:37:36;;;;;;;1.40;1.10;;;6.90;99.90;;;;;;5116345;28;20237;-68
2022/02/20 03:40:04;;;;;;;4.53;1.40;;;6.80;99.90;;;;;;5116466;28;20308;-68
2022/02/20 03:42:31;;;;;;;2.70;1.25;;;6.80;99.90;;;;;;5116600;28;20201;-68
2022/02/20 03:44:57;;;;;;;2.60;1.17;;;6.80;99.90;;;;;;5116535;28;20204;-68
2022/02/20 03:47:24;;;;;;;2.05;0.95;;;6.80;99.90;;;;;;5116109;28;20706;-68
2022/02/20 03:49:52;;;;;;;3.05;1.25;;;6.90;99.90;;;;;;5116229;28;20213;-68
2022/02/20 03:52:19;;;;;;;1.27;1.15;;;6.90;99.90;;;;;;5116188;28;20678;-68
2022/02/20 03:54:46;;;;;;;3.05;1.08;;;6.90;99.90;;;;;;5116227;28;20256;-68
2022/02/20 03:57:13;;;;;;;3.13;1.33;;;6.90;99.90;;;;;;5116345;28;20221;-68
2022/02/20 03:59:40;;;;;;;2.33;1.20;;;6.90;99.90;;;;;;5116036;28;20208;-68
2022/02/20 04:02:07;;;;;;;4.05;1.63;;;6.90;99.90;;;;;;5116190;28;20224;-68
2022/02/20 04:04:34;;;;;;;4.00;1.88;;;6.90;99.90;;;;;;5116077;28;20293;-68
2022/02/20 04:07:03;;;;;;;3.08;2.13;;;6.90;99.90;;;;;;5116095;28;20294;-68
2022/02/20 04:09:29;;;;;;;1.60;1.20;;;6.90;99.90;;;;;;5116038;28;20202;-68
2022/02/20 04:11:56;;;;;;;2.10;1.45;;;6.90;99.90;;;;;;5115547;28;20296;-68
2022/02/20 04:14:23;;;;;;;1.42;1.00;;;6.80;99.90;;;;;;5115929;28;20296;-68
2022/02/20 04:16:50;;;;;;;2.05;1.45;;;6.80;99.90;;;;;;5115612;28;20232;-67
2022/02/20 04:19:17;;;;;;;3.38;1.10;;;6.80;99.90;;;;;;5115577;28;20202;-68
2022/02/20 04:21:44;;;;;;;1.70;1.23;;;6.80;99.90;;;;;;5115633;28;20211;-68
2022/02/20 04:24:12;;;;;;;2.17;1.30;;;6.80;99.90;;;;;;5114949;28;20292;-67
2022/02/20 04:26:39;;;;;;;2.10;1.02;;;6.90;99.90;;;;;;5115394;28;20213;-68
2022/02/20 04:29:05;;;;;;;1.08;1.00;;;6.90;99.90;;;;;;5115639;28;20189;-68
2022/02/20 04:31:33;;;;;;;1.40;0.88;;;6.90;99.90;;;;;;5115068;28;20204;-68
2022/02/20 04:33:59;;;;;;;1.77;1.20;;;6.90;99.90;;;;;;5115320;28;20655;-68
2022/02/20 04:36:26;;;;;;;1.17;0.90;;;6.90;99.90;;;;;;5115267;28;20264;-68
2022/02/20 04:38:54;;;;;;;1.05;0.70;;;6.80;99.90;;;;;;5115464;28;20202;-68
2022/02/20 04:41:22;;;;;;;3.75;2.50;;;6.80;99.90;;;;;;5115237;28;20619;-68
2022/02/20 04:43:49;;;;;;;1.33;0.68;;;6.80;99.90;;;;;;5115426;28;20232;-68
2022/02/20 04:46:16;;;;;;;0.75;0.68;;;6.80;99.90;;;;;;5115206;28;20225;-67
2022/02/20 04:48:43;;;;;;;1.00;0.90;;;6.80;99.90;;;;;;5115310;28;20229;-68
2022/02/20 04:51:10;;;;;;;0.88;0.60;;;6.80;99.90;;;;;;5115098;28;20289;-68
2022/02/20 04:53:37;;;;;;;0.80;0.80;;;6.80;99.90;;;;;;5115038;28;20204;-68
2022/02/20 04:56:05;;;;;;;2.15;0.70;;;6.80;99.90;;;;;;5114863;28;20228;-68
2022/02/20 04:58:34;;;;;;;1.13;0.88;;;6.80;99.90;;;;;;5115064;28;20197;-68
2022/02/20 05:01:00;;;;;;;1.17;0.85;;;6.80;99.90;;;;;;5114589;28;20201;-68
2022/02/20 05:03:27;;;;;;;0.80;0.80;;;6.80;99.90;;;;;;5115028;28;20308;-68
2022/02/20 05:05:55;;;;;;;1.48;0.75;;;6.70;99.90;;;;;;5114872;28;20246;-68
2022/02/20 05:08:22;;;;;;;1.40;0.98;;;6.70;99.90;;;;;;5114993;28;20208;-68
2022/02/20 05:10:49;;;;;;;1.60;0.95;;;6.70;99.90;;;;;;5114434;28;20201;-68
2022/02/20 05:13:16;;;;;;;4.05;1.92;;;6.60;99.90;;;;;;5114740;28;20570;-68
2022/02/20 05:15:47;;;;;;;1.70;1.10;;;6.60;99.90;;;;;;5114892;28;20225;-68
2022/02/20 05:18:14;;;;;;;1.15;0.70;;;6.50;99.90;;;;;;5115453;28;20225;-68
2022/02/20 05:20:42;;;;;;;0.90;0.90;;;6.50;99.90;;;;;;5114896;28;20201;-68
2022/02/20 05:23:09;;;;;;;0.88;0.88;;;6.50;99.90;;;;;;5115195;28;20205;-68
2022/02/20 05:25:36;;;;;;;1.10;0.93;;;6.50;99.90;;;;;;5114754;28;20211;-68
2022/02/20 05:28:03;;;;;;;2.42;1.20;;;6.50;99.90;;;;;;5114168;28;20235;-68
2022/02/20 05:30:30;;;;;;;1.00;0.70;;;6.50;99.90;;;;;;5114524;28;20201;-68
2022/02/20 05:32:58;;;;;;;0.82;0.82;;;6.50;99.90;;;;;;5114541;28;20289;-68
2022/02/20 05:35:25;;;;;;;0.90;0.85;;;6.50;99.90;;;;;;5113279;28;20237;-68
2022/02/20 05:37:52;;;;;;;0.90;0.90;;;6.60;99.90;;;;;;5114201;28;20225;-68
2022/02/20 05:40:21;;;;;;;2.10;0.98;;;6.50;99.90;;;;;;5114093;28;20296;-68
2022/02/20 05:42:47;;;;;;;0.95;0.95;;;6.50;99.90;;;;;;5114347;28;20197;-68
2022/02/20 05:45:14;;;;;;;1.13;0.70;;;6.50;99.90;;;;;;5114145;28;20201;-68
2022/02/20 05:47:41;;;;;;;0.90;0.73;;;6.50;99.90;;;;;;5114391;28;20316;-68
2022/02/20 05:50:11;;;;;;;2.10;1.05;;;6.50;99.90;;;;;;5113985;28;20659;-68
2022/02/20 05:52:38;;;;;;;1.30;0.80;;;6.50;99.90;;;;;;5114165;28;20571;-67
2022/02/20 05:55:06;;;;;;;1.60;1.00;;;6.50;99.90;;;;;;5114210;28;20209;-68
2022/02/20 05:57:42;;;;;;;1.25;1.15;;;6.50;99.90;;;;;;5114124;28;20225;-67
2022/02/20 06:00:11;;;;;;;1.85;1.27;;;6.50;99.90;;;;;;5114070;28;20205;-68
2022/02/20 06:02:38;;;;;;;0.80;0.80;;;6.50;99.90;;;;;;5114140;28;20204;-68
2022/02/20 06:05:05;;;;;;;2.35;1.20;;;6.50;99.90;;;;;;5114131;28;20295;-68
2022/02/20 06:07:33;;;;;;;1.95;0.90;;;6.50;99.90;;;;;;5113776;28;20724;-68
2022/02/20 06:10:01;;;;;;;1.27;0.75;;;6.50;99.90;;;;;;5113890;28;20239;-68
2022/02/20 06:12:29;;;;;;;0.80;0.80;;;6.50;99.90;;;;;;5113974;28;20202;-68
2022/02/20 06:14:55;;;;;;;2.60;0.88;;;6.50;99.90;;;;;;5113842;28;20212;-68
2022/02/20 06:17:22;;;;;;;2.45;0.90;;;6.60;99.90;;;;;;5113808;28;20227;-68
2022/02/20 06:19:50;;;;;;;0.80;0.80;;;6.60;99.90;;;;;;5113798;28;20202;-68
2022/02/20 06:22:16;;;;;;;1.20;1.00;;;6.70;99.90;;;;;;5113929;28;20213;-68
2022/02/20 06:24:45;;;;;;;1.73;0.82;;;6.70;99.90;;;;;;5113908;28;20329;-67
2022/02/20 06:27:12;;;;;;;2.85;1.00;;;6.70;99.90;;;;;;5113731;28;20225;-68
2022/02/20 06:29:39;;;;;;;1.23;0.90;;;6.70;99.90;;;;;;5113683;28;20292;-68
2022/02/20 06:32:07;;;;;;;0.82;0.82;;;6.70;99.90;;;;;;5113796;28;20201;-68
2022/02/20 06:34:34;;;;;;;2.25;0.80;;;6.70;99.90;;;;;;5113738;28;20200;-68
2022/02/20 06:37:03;;;;;;;1.35;1.05;;;6.80;99.90;;;;;;5113664;28;20235;-68
2022/02/20 06:39:31;;;;;;;1.05;0.80;;;6.80;99.90;;;;;;5113835;28;20206;-68
2022/02/20 06:41:59;;;;;;;2.80;0.65;;;6.90;99.90;;;;;;5113581;28;20230;-67
2022/02/20 06:44:26;;;;;;;2.05;0.98;;;6.90;99.90;;;;;;5113599;28;20677;-68
2022/02/20 06:46:53;;;;;;;0.95;0.80;;;7.00;99.90;;;;;;5114493;28;20218;-67
2022/02/20 06:49:20;;;;;;;1.55;0.70;;;7.00;99.90;;;;;;5117606;28;20204;-68
2022/02/20 06:51:47;;;;;;;3.47;2.30;;;7.00;99.90;;;;;;5117407;28;20288;-68
2022/02/20 06:54:13;;;;;;;0.80;0.70;;;7.10;99.90;;;;;;5117541;28;20208;-67
2022/02/20 06:56:40;;;;;;;2.65;0.57;;;7.10;99.90;;;;;;5117260;28;20229;-68
2022/02/20 06:59:09;;;;;;;0.90;0.60;;;7.10;99.90;;;;;;5117502;28;20291;-67
2022/02/20 07:01:35;;;;;;;1.08;0.80;;;7.10;99.90;;;;;;5116914;28;20280;-68
2022/02/20 07:04:04;;;;;;;1.00;0.60;;;7.20;99.90;;;;;;5117286;28;20197;-68
2022/02/20 07:06:31;;;;;;;0.88;0.70;;;7.10;99.90;;;;;;5117024;28;20222;-68
2022/02/20 07:08:58;;;;;;;0.60;0.50;;;7.20;99.90;;;;;;5116992;28;20216;-68
2022/02/20 07:11:27;;;;;;;1.02;0.57;;;7.20;99.90;;;;;;5116968;28;20201;-68
2022/02/20 07:13:54;;;;;;;0.60;0.60;;;7.20;99.90;;;;;;5117069;28;20201;-68
2022/02/20 07:16:22;;;;;;;1.50;0.60;;;7.20;99.90;;;;;;5116903;28;20225;-68
2022/02/20 07:18:49;;;;;;;0.80;0.63;;;7.20;99.90;;;;;;5117048;28;20232;-68
2022/02/20 07:21:16;;;;;;;0.88;0.77;;;7.20;99.90;;;;;;5116763;28;20197;-68
2022/02/20 07:23:42;;;;;;;0.90;0.70;;;7.20;99.90;;;;;;5116944;28;20216;-68
2022/02/20 07:26:09;;;;;;;0.77;0.52;;;7.20;99.90;;;;;;5116770;28;20215;-68
2022/02/20 07:28:36;;;;;;;0.90;0.90;;;7.20;99.90;;;;;;5116655;28;20223;-67
2022/02/20 07:31:03;;;;;;;0.75;0.75;;;7.20;99.90;;;;;;5116496;28;20197;-68
2022/02/20 07:33:31;;;;;;;1.02;0.80;;;7.30;99.90;;;;;;5116854;28;20612;-68
2022/02/20 07:35:58;;;;;;;1.20;0.60;;;7.30;99.90;;;;;;5116610;28;20198;-68
2022/02/20 07:38:25;;;;;;;1.67;1.00;;;7.30;99.90;;;;;;5116689;28;20571;-68
2022/02/20 07:40:52;;;;;;;4.63;2.78;;;7.40;99.90;;;;;;5116549;28;20197;-68
2022/02/20 07:43:19;;;;;;;1.35;0.77;;;7.40;99.90;;;;;;5116556;28;20209;-68
2022/02/20 07:45:45;;;;;;;1.10;0.70;;;7.50;99.90;;;;;;5116292;28;20690;-68
2022/02/20 07:48:14;;;;;;;1.10;1.05;;;7.50;99.90;;;;;;5116518;28;20284;-68
2022/02/20 07:50:43;;;;;;;0.65;0.65;;;7.60;99.90;;;;;;5116644;28;20591;-68
2022/02/20 07:53:10;;;;;;;1.40;0.77;;;7.60;99.90;;;;;;5116175;28;20205;-68
2022/02/20 07:55:36;;;;;;;1.15;0.80;;;7.60;99.90;;;;;;5116010;28;20205;-68
2022/02/20 07:58:07;;;;;;;2.83;0.98;;;7.70;99.90;;;;;;5115429;28;20336;-68
2022/02/20 08:00:34;;;;;;;1.05;0.90;;;7.80;99.90;;;;;;5115879;28;20201;-68
2022/02/20 08:03:02;;;;;;;0.65;0.57;;;7.70;99.90;;;;;;5116185;28;20198;-68
2022/02/20 08:05:29;;;;;;;1.33;0.90;;;7.70;99.90;;;;;;5116430;28;20209;-68
2022/02/20 08:07:57;;;;;;;0.73;0.65;;;7.80;99.90;;;;;;5116119;28;20219;-68
2022/02/20 08:10:25;;;;;;;0.90;0.68;;;7.80;99.90;;;;;;5115773;28;20301;-68
2022/02/20 08:12:52;;;;;;;0.77;0.77;;;7.90;99.90;;;;;;5116049;28;20201;-68
2022/02/20 08:15:18;;;;;;;1.23;0.90;;;8.00;99.90;;;;;;5115891;28;20296;-68
2022/02/20 08:17:47;;;;;;;1.05;0.73;;;8.10;99.90;;;;;;5115774;28;20221;-68
2022/02/20 08:20:15;;;;;;;1.60;0.88;;;8.10;99.90;;;;;;5115620;28;20291;-68
2022/02/20 08:22:42;;;;;;;2.78;1.10;;;8.10;99.90;;;;;;5115656;28;20202;-68
2022/02/20 08:25:11;;;;;;;1.27;0.80;;;8.10;99.90;;;;;;5115720;28;20202;-68
2022/02/20 08:27:38;;;;;;;2.15;0.93;;;8.10;99.90;;;;;;5115514;28;20236;-68
2022/02/20 08:30:07;;;;;;;0.90;0.80;;;8.20;99.90;;;;;;5115454;28;20197;-68
2022/02/20 08:32:34;;;;;;;1.48;1.00;;;8.20;99.90;;;;;;5115654;28;20205;-68
2022/02/20 08:35:03;;;;;;;0.82;0.70;;;8.30;99.90;;;;;;5115631;28;20205;-68
2022/02/20 08:37:30;;;;;;;4.03;0.90;;;8.30;99.90;;;;;;5115438;28;20225;-68
2022/02/20 08:39:56;;;;;;;1.10;0.90;;;8.40;99.90;;;;;;5115253;28;20296;-67
2022/02/20 08:42:24;;;;;;;3.35;1.13;;;8.50;99.90;;;;;;5115220;28;20296;-68
2022/02/20 08:44:51;;;;;;;1.75;1.00;;;8.60;99.90;;;;;;5115358;28;20201;-68
2022/02/20 08:47:18;;;;;;;1.10;1.00;;;8.70;99.90;;;;;;5115513;28;20222;-68
2022/02/20 08:49:45;;;;;;;2.60;1.10;;;8.60;99.90;;;;;;5115162;28;20232;-68
2022/02/20 08:52:12;;;;;;;1.42;0.90;;;8.60;99.90;;;;;;5115238;28;20292;-68
2022/02/20 08:54:39;;;;;;;1.70;1.10;;;8.60;99.90;;;;;;5115337;28;20197;-68
2022/02/20 08:57:08;;;;;;;1.25;1.15;;;8.60;99.90;;;;;;5114781;28;20225;-68
2022/02/20 08:59:36;;;;;;;2.65;1.20;;;8.70;99.90;;;;;;5115349;28;20205;-68
2022/02/20 09:02:04;;;;;;;1.08;0.90;;;8.90;99.90;;;;;;5115067;27;20293;-68
2022/02/20 09:04:30;;;;;;;1.60;1.05;;;9.00;99.90;;;;;;5114714;28;20201;-68
2022/02/20 09:06:57;;;;;;;1.15;0.98;;;9.10;99.90;;;;;;5115222;28;20274;-68
2022/02/20 09:09:24;;;;;;;1.15;0.85;;;9.20;99.90;;;;;;5114496;28;20216;-68
2022/02/20 09:11:51;;;;;;;0.75;0.75;;;9.20;99.90;;;;;;5114561;28;20292;-68
2022/02/20 09:14:18;;;;;;;1.00;1.00;;;9.20;99.90;;;;;;5114734;28;20197;-67
2022/02/20 09:16:46;;;;;;;2.35;1.00;;;9.20;99.90;;;;;;5114426;28;20225;-68
2022/02/20 09:19:13;;;;;;;1.10;0.80;;;9.20;99.90;;;;;;5114796;28;20202;-68
2022/02/20 09:21:40;;;;;;;1.85;1.60;;;9.20;99.90;;;;;;5114512;28;20629;-68
2022/02/20 09:24:07;;;;;;;3.50;3.05;;;9.20;99.90;;;;;;5114627;28;20204;-68
2022/02/20 09:26:34;;;;;;;2.10;1.15;;;9.20;99.90;;;;;;5114199;28;20225;-68
2022/02/20 09:29:01;;;;;;;11.80;7.07;;;9.30;99.90;;;;;;5114724;28;20188;-68
2022/02/20 09:31:28;;;;;;;6.50;3.05;;;9.30;99.90;;;;;;5114217;28;20244;-68
2022/02/20 09:33:56;;;;;;;4.75;3.08;;;9.30;99.90;;;;;;5114649;28;20202;-68
2022/02/20 09:36:23;;;;;;;2.35;1.80;;;9.30;99.90;;;;;;5114420;28;20232;-68
2022/02/20 09:38:50;;;;;;;6.65;4.30;;;9.30;99.90;;;;;;5114530;28;20227;-68
2022/02/20 09:41:17;;;;;;;1.85;1.58;;;9.40;99.90;;;;;;5114235;28;20624;-68
2022/02/20 09:43:44;;;;;;;1.60;1.00;;;9.40;99.90;;;;;;5114290;28;20211;-68
2022/02/20 09:46:10;;;;;;;1.48;1.25;;;9.50;99.90;;;;;;5113981;28;20721;-68
2022/02/20 09:48:38;;;;;;;0.65;0.65;;;9.50;99.90;;;;;;5114052;28;20229;-67
2022/02/20 09:51:06;;;;;;;1.98;1.83;;;9.40;99.90;;;;;;5114031;28;20250;-67
2022/02/20 09:53:35;;;;;;;1.33;1.17;;;9.40;99.90;;;;;;5114176;28;20201;-68
2022/02/20 09:56:03;;;;;;;2.35;1.40;;;9.50;99.90;;;;;;5114151;28;20201;-68
2022/02/20 09:58:30;;;;;;;2.45;0.70;;;9.50;99.90;;;;;;5114151;28;20221;-68
2022/02/20 10:01:03;;;;;;;1.48;1.10;;;9.50;99.90;;;;;;5113754;28;20734;-68
2022/02/20 10:03:32;;;;;;;2.92;0.90;;;9.50;99.90;;;;;;5114168;28;20288;-67
2022/02/20 10:06:00;;;;;;;0.77;0.77;;;9.50;99.90;;;;;;5113959;28;20296;-67
2022/02/20 10:08:36;;;;;;;0.50;0.50;;;9.50;99.90;;;;;;5114093;28;20201;-68
2022/02/20 10:11:16;;;;;;;1.25;0.63;;;9.50;99.90;;;;;;5113680;28;20200;-68
2022/02/20 10:13:44;;;;;;;0.60;0.60;;;9.50;99.90;;;;;;5113790;28;20737;-68
2022/02/20 10:16:18;;;;;;;0.85;0.70;;;9.60;99.90;;;;;;5113603;28;20221;-68
2022/02/20 10:18:46;;;;;;;0.80;0.80;;;9.60;99.90;;;;;;5113719;28;20708;-68
2022/02/20 10:21:17;;;;;;;0.73;0.73;;;9.70;99.90;;;;;;5113582;28;20671;-68
2022/02/20 10:23:45;;;;;;;0.47;0.47;;;9.60;99.90;;;;;;5118022;28;20210;-68
2022/02/20 10:26:13;;;;;;;0.77;0.77;;;9.60;99.90;;;;;;5117794;28;20223;-68
2022/02/20 10:29:02;;;;;;;0.98;0.52;;;9.60;99.90;;;;;;5117906;28;20231;-67
2022/02/20 10:31:47;;;;;;;2.80;1.67;;;9.70;99.90;;;;;;5117729;28;20667;-68
2022/02/20 10:34:15;;;;;;;0.50;0.50;;;9.70;99.90;;;;;;5117914;28;20671;-68
2022/02/20 10:36:47;;;;;;;1.45;1.30;;;9.90;99.90;;;;;;5117865;28;20247;-67
2022/02/20 10:39:24;;;;;;;0.93;0.90;;;10.00;99.90;;;;;;5117866;28;20201;-68
2022/02/20 10:41:51;;;;;;;1.35;1.23;;;10.10;99.90;;;;;;5117525;28;20236;-68
2022/02/20 10:44:18;;;;;;;0.73;0.73;;;10.20;99.90;;;;;;5117639;28;20655;-68
2022/02/20 10:46:45;;;;;;;1.38;0.70;;;10.20;99.90;;;;;;5117587;28;20221;-67
2022/02/20 10:49:24;;;;;;;0.55;0.55;;;10.30;99.90;;;;;;5117600;28;20295;-68
2022/02/20 10:51:51;;;;;;;0.75;0.55;;;10.30;99.90;;;;;;5117483;28;20206;-68
2022/02/20 10:54:19;;;;;;;0.80;0.80;;;10.30;99.90;;;;;;5117465;28;20201;-68
2022/02/20 10:56:47;;;;;;;0.60;0.60;;;10.30;99.90;;;;;;5117500;28;20227;-68
2022/02/20 10:59:16;;;;;;;0.60;0.60;;;10.40;99.90;;;;;;5117607;28;20225;-68
2022/02/20 11:01:42;;;;;;;0.70;0.55;;;10.40;99.90;;;;;;5117320;28;20251;-68
2022/02/20 11:04:11;;;;;;;0.60;0.60;;;10.40;99.90;;;;;;5117152;28;20738;-68
2022/02/20 11:06:38;;;;;;;0.88;0.70;;;10.50;99.90;;;;;;5117350;28;20263;-68
2022/02/20 11:09:06;;;;;;;0.68;0.68;;;10.60;99.90;;;;;;5117265;28;20255;-68
2022/02/20 11:11:40;;;;;;;0.65;0.65;;;10.60;99.50;;;;;;5116761;28;20236;-68
2022/02/20 11:14:09;;;;;;;0.85;0.65;;;10.60;99.60;;;;;;5117007;28;20204;-68
2022/02/20 11:16:41;;;;;;;0.95;0.60;;;10.50;99.60;;;;;;5117011;28;20217;-68
2022/02/20 11:19:08;;;;;;;0.73;0.60;;;10.50;99.70;;;;;;5117066;28;20205;-68
2022/02/20 11:21:42;;;;;;;0.60;0.60;;;10.50;99.70;;;;;;5116639;28;20296;-68
2022/02/20 11:24:10;;;;;;;0.60;0.60;;;10.50;99.30;;;;;;5116903;28;20592;-68
2022/02/20 11:26:42;;;;;;;0.70;0.70;;;10.50;99.60;;;;;;5116730;28;20586;-67
2022/02/20 11:29:09;;;;;;;1.35;0.80;;;10.50;99.40;;;;;;5116892;28;20201;-68
2022/02/20 11:31:37;;;;;;;0.93;0.90;;;10.60;99.70;;;;;;5116659;28;20208;-68
2022/02/20 11:34:06;;;;;;;1.25;0.75;;;10.60;99.40;;;;;;5116709;28;20207;-68
2022/02/20 11:36:32;;;;;;;0.85;0.75;;;10.80;99.30;;;;;;5116650;28;20221;-68
2022/02/20 11:39:06;;;;;;;0.70;0.70;;;10.80;99.10;;;;;;5116571;28;20227;-68
2022/02/20 11:41:33;;;;;;;0.77;0.70;;;10.80;99.20;;;;;;5116491;28;20205;-68
2022/02/20 11:44:14;;;;;;;4.28;2.80;;;10.70;99.20;;;;;;5116595;28;20205;-68
2022/02/20 11:46:52;;;;;;;0.73;0.73;;;10.60;99.30;;;;;;5116473;28;20593;-68
2022/02/20 11:49:29;;;;;;;0.85;0.60;;;10.70;99.30;;;;;;5116304;28;20674;-68
2022/02/20 11:52:02;;;;;;;0.90;0.60;;;10.70;99.20;;;;;;5116082;28;20676;-68
2022/02/20 11:54:31;;;;;;;0.63;0.60;;;10.80;99.10;;;;;;5116230;28;20212;-68
2022/02/20 11:57:23;;;;;;;0.55;0.52;;;10.80;99.00;;;;;;5116141;28;20602;-68
2022/02/20 12:00:23;;;;;;;0.60;0.50;;;10.70;98.80;;;;;;5116086;28;20228;-68
2022/02/20 12:03:17;;;;;;;1.05;0.60;;;10.70;99.00;;;;;;5033594;28;20303;-67
2022/02/20 12:06:24;;;;;;;0.40;0.40;;;10.60;99.00;;;;;;5113906;28;20292;-68
2022/02/20 12:08:53;;;;;;;1.92;0.85;;;10.60;99.00;;;;;;5115981;28;20699;-68
2022/02/20 12:11:23;;;;;;;0.40;0.40;;;10.60;99.00;;;;;;5115988;28;20209;-68
2022/02/20 12:13:51;;;;;;;0.55;0.55;;;10.60;99.00;;;;;;5116162;28;20201;-68
2022/02/20 12:16:30;;;;;;;0.63;0.60;;;10.60;99.00;;;;;;5116143;28;20228;-68
2022/02/20 12:19:16;;;;;;;1.00;0.95;;;10.60;99.00;;;;;;5115705;28;20221;-68
2022/02/20 12:22:01;;;;;;;1.60;0.95;;;10.60;99.10;;;;;;5115938;28;20205;-68
2022/02/20 12:24:38;;;;;;;1.45;1.17;;;10.60;99.30;;;;;;5115739;28;20202;-67
2022/02/20 12:27:06;;;;;;;1.33;0.90;;;10.70;99.10;;;;;;5115671;28;20229;-67
2022/02/20 12:29:37;;;;;;;0.70;0.60;;;10.70;99.00;;;;;;5116005;28;20220;-68
2022/02/20 12:32:15;;;;;;;1.30;0.80;;;10.80;99.30;;;;;;5115790;28;20212;-68
2022/02/20 12:35:07;;;;;;;0.80;0.80;;;10.90;99.10;;;;;;5115685;28;20197;-68
2022/02/20 12:37:36;;;;;;;1.38;0.80;;;10.80;99.00;;;;;;5115568;28;20261;-68
2022/02/20 12:40:07;;;;;;;0.70;0.70;;;10.80;99.10;;;;;;5115268;28;20201;-68
2022/02/20 12:42:38;;;;;;;0.77;0.77;;;10.90;99.10;;;;;;5115488;28;20208;-68
2022/02/20 12:45:09;;;;;;;0.90;0.70;;;11.00;99.10;;;;;;5114869;28;20296;-68
2022/02/20 12:47:38;;;;;;;0.98;0.57;;;11.00;99.00;;;;;;5115505;28;20221;-68
2022/02/20 12:50:07;;;;;;;1.25;0.80;;;11.00;98.90;;;;;;5114880;28;20689;-68
2022/02/20 12:52:37;;;;;;;1.02;0.82;;;11.00;99.00;;;;;;5115278;28;20232;-68
2022/02/20 12:55:06;;;;;;;0.80;0.80;;;11.00;99.20;;;;;;5115322;28;20201;-68
2022/02/20 12:57:36;;;;;;;1.10;0.90;;;11.10;98.90;;;;;;5114721;28;20232;-67
2022/02/20 13:00:09;;;;;;;2.10;0.70;;;11.10;99.00;;;;;;5115013;28;20239;-68
2022/02/20 13:02:38;;;;;;;0.70;0.68;;;11.20;98.90;;;;;;5115082;28;20288;-68